Elk River, Idaho
Current Conditions -  °F | °C
As of 9:22 PM on Tuesday 25 Nov 2014 (Local Time) from KPUW Reporting Station
Light Rain Light Rain  
Wind Chill: 38°   Ceiling: 1400
Heat Index: 38°   Visibility: 2.5mi
Dew Point: 37°   Wind: 3mph
Humidity: 97%   Direction: 90°E
Pressure: 30.16"   Gusts: NA
Location:  46.78°N, 116.18°W
Report Text: KPUW 260522Z AUTO 09003KT 2 1/2SM -RA BR SCT007 OVC014 03/03 A3016 RMK AO2 P0002 T00330028
Loading
Personal Weather Stations






























Interactive Weather Map New forecast layout! Learn more

10-Day Weather Forecast

Advertisements
Track Severe Weather on mobile